Time;durP1;ratioP1;P1;durP2;ratioP2;P2;SDS_P1;SDS_P2;PMS_P1;PMS_P2;Temp;Humidity;BMP_temperature;BMP_pressure;BME280_temperature;BME280_humidity;BME280_pressure;Samples;Min_cycle;Max_cycle;Signal;HPM_P1;HPM_P2
2022/09/15 00:01:19;;;;;;;772.70;715.38;;;18.00;99.90;;;18.00;100.00;99737.22;5002639;28;20205;-66
2022/09/15 00:03:47;;;;;;;773.55;716.20;;;14.60;99.90;;;17.96;100.00;99735.56;5022298;28;20234;-67
2022/09/15 00:06:16;;;;;;;760.58;704.85;;;18.00;99.90;;;17.89;100.00;99737.56;4996016;28;20219;-70
2022/09/15 00:08:44;;;;;;;769.60;712.63;;;17.90;99.90;;;17.91;100.00;99741.06;5033595;28;20666;-69
2022/09/15 00:11:19;;;;;;;758.50;702.92;;;17.90;99.90;;;17.89;100.00;99737.56;5011454;28;20211;-68
2022/09/15 00:13:48;;;;;;;752.45;697.00;;;17.90;99.90;;;17.87;100.00;99741.22;5008477;28;20225;-71
2022/09/15 00:16:18;;;;;;;754.65;698.95;;;17.90;99.90;;;17.95;100.00;99749.00;5021435;28;20230;-72
2022/09/15 00:18:46;;;;;;;757.53;701.85;;;17.90;99.90;;;17.93;100.00;99746.38;4989049;28;20215;-72
2022/09/15 00:21:19;;;;;;;749.30;694.22;;;17.90;99.90;;;17.89;100.00;99742.94;5039759;28;20218;-72
2022/09/15 00:23:48;;;;;;;748.85;693.85;;;17.90;99.90;;;17.89;100.00;99745.59;4994074;28;20231;-69
2022/09/15 00:26:22;;;;;;;763.85;707.38;;;17.90;99.90;;;17.88;100.00;99742.97;5007790;28;20210;-69
2022/09/15 00:28:51;;;;;;;751.95;697.17;;;17.90;99.90;;;17.88;100.00;99741.19;4977037;28;20533;-69
2022/09/15 00:31:24;;;;;;;757.00;701.30;;;17.90;99.90;;;17.92;100.00;99741.94;4974346;28;20559;-70
2022/09/15 00:33:55;;;;;;;754.15;698.83;;;17.90;99.90;;;17.95;100.00;99743.66;5014091;28;20223;-70
2022/09/15 00:36:25;;;;;;;759.78;703.67;;;17.90;99.90;;;17.92;100.00;99748.19;4991528;28;20237;-73
2022/09/15 00:38:54;;;;;;;761.28;704.58;;;17.90;99.90;;;17.96;100.00;99734.69;5004343;28;20210;-69
2022/09/15 00:41:23;;;;;;;757.00;701.22;;;17.90;99.90;;;17.99;100.00;99730.13;5008845;28;20219;-72
2022/09/15 00:44:02;;;;;;;755.58;699.05;;;17.90;99.90;;;18.01;100.00;99738.09;4998249;28;20238;-69
2022/09/15 00:46:36;;;;;;;757.28;700.53;;;17.90;99.90;;;18.05;100.00;99732.59;5009771;28;20624;-72
2022/09/15 00:49:27;;;;;;;756.47;699.95;;;18.00;99.90;;;18.08;100.00;99719.13;4999455;28;20207;-69
2022/09/15 00:52:10;;;;;;;765.85;708.08;;;18.00;99.90;;;18.09;100.00;99711.97;4979908;28;20215;-70
2022/09/15 00:54:48;;;;;;;749.40;694.15;;;18.00;99.90;;;18.10;100.00;99714.59;5015035;28;20817;-68
2022/09/15 00:57:49;;;;;;;749.15;694.00;;;18.00;99.90;;;18.09;100.00;99701.28;5007729;28;20237;-68
2022/09/15 01:00:21;;;;;;;737.80;683.58;;;18.00;99.90;;;18.08;100.00;99702.19;5019617;28;20205;-69
2022/09/15 01:02:49;;;;;;;755.35;699.58;;;18.00;99.90;;;18.06;100.00;99698.69;5004068;28;20217;-69
2022/09/15 01:05:22;;;;;;;748.17;692.80;;;18.00;99.90;;;18.05;100.00;99699.63;5032622;28;20230;-71
2022/09/15 01:08:06;;;;;;;751.58;695.85;;;18.00;99.90;;;18.02;100.00;99697.94;4999835;28;20211;-69
2022/09/15 01:10:38;;;;;;;745.17;689.85;;;18.00;99.90;;;18.03;100.00;99694.31;5026585;28;20210;-73
2022/09/15 01:13:11;;;;;;;745.92;690.53;;;18.00;99.90;;;18.04;100.00;99695.19;5010895;28;20229;-69
2022/09/15 01:16:08;;;;;;;744.58;689.92;;;18.00;99.90;;;18.03;100.00;99696.13;4992364;28;20235;-69
2022/09/15 01:19:01;;;;;;;744.83;689.53;;;18.00;99.90;;;18.03;100.00;99704.16;5027379;28;20213;-68
2022/09/15 01:21:51;;;;;;;760.97;703.97;;;18.00;99.90;;;18.00;100.00;99699.78;4999355;28;20205;-69
2022/09/15 01:24:24;;;;;;;752.38;695.53;;;18.00;99.90;;;18.00;100.00;99689.06;5014238;28;20238;-72
2022/09/15 01:27:46;;;;;;;760.88;703.78;;;18.00;99.90;;;18.01;100.00;99690.81;5005708;28;20222;-69
2022/09/15 01:30:22;;;;;;;746.88;690.30;;;17.90;99.90;;;18.00;100.00;99693.56;5005206;28;20218;-71
2022/09/15 01:33:23;;;;;;;740.17;685.97;;;17.90;99.90;;;18.00;100.00;99690.88;4986027;28;20210;-69
2022/09/15 01:36:00;;;;;;;747.35;691.65;;;17.90;99.90;;;18.01;100.00;99693.50;4998967;28;20234;-69
2022/09/15 01:39:02;;;;;;;757.17;701.15;;;18.70;99.90;;;18.00;100.00;99691.75;5022289;28;20206;-72
2022/09/15 01:41:42;;;;;;;747.65;691.22;;;17.90;99.90;;;18.02;100.00;99686.34;5028493;28;20198;-71
2022/09/15 01:44:22;;;;;;;745.47;690.70;;;17.90;99.90;;;18.03;100.00;99682.75;5014620;28;20234;-68
2022/09/15 01:46:58;;;;;;;750.97;695.33;;;18.00;99.90;;;18.03;100.00;99682.75;4992789;28;20218;-70
2022/09/15 01:49:34;;;;;;;752.22;696.15;;;18.00;99.90;;;18.00;100.00;99673.03;5007055;28;20260;-70
2022/09/15 01:52:02;;;;;;;743.45;688.80;;;18.00;99.90;;;18.00;100.00;99683.72;5010463;28;20194;-69
2022/09/15 01:54:39;;;;;;;741.58;686.70;;;18.00;99.90;;;17.98;100.00;99682.91;5016830;28;20226;-69
2022/09/15 01:57:07;;;;;;;744.38;689.13;;;;;;;17.97;100.00;99688.31;5017567;28;20230;-69
2022/09/15 01:59:34;;;;;;;760.20;703.65;;;18.00;99.90;;;17.99;100.00;99697.16;5006299;28;20202;-70
2022/09/15 02:02:16;;;;;;;753.25;696.95;;;18.00;99.90;;;17.98;100.00;99692.72;5022046;28;20209;-71
2022/09/15 02:05:02;;;;;;;741.08;686.55;;;18.00;99.90;;;17.98;100.00;99688.25;5036700;28;20570;-69
2022/09/15 02:07:46;;;;;;;753.33;697.33;;;20.40;99.90;;;18.03;100.00;99686.28;4988431;28;20203;-70
2022/09/15 02:11:04;;;;;;;744.25;688.55;;;18.00;99.90;;;18.03;100.00;99677.41;5032884;28;20206;-69
2022/09/15 02:13:49;;;;;;;751.72;694.83;;;18.00;99.90;;;18.02;100.00;99679.19;4989969;28;20647;-69
2022/09/15 02:16:21;;;;;;;745.08;689.20;;;18.00;99.90;;;18.04;100.00;99684.50;5015631;28;20317;-70
2022/09/15 02:19:08;;;;;;;761.80;704.67;;;18.00;99.90;;;18.03;100.00;99683.63;4999238;28;20581;-70
2022/09/15 02:22:03;;;;;;;756.42;699.92;;;18.00;99.90;;;18.03;100.00;99680.94;5028359;28;20209;-69
2022/09/15 02:24:39;;;;;;;754.63;698.35;;;18.00;99.90;;;18.04;100.00;99689.84;4997888;28;20235;-72
2022/09/15 02:27:15;;;;;;;757.10;700.13;;;18.00;99.90;;;18.04;100.00;99685.38;5015827;28;20218;-72
2022/09/15 02:29:45;;;;;;;759.47;703.38;;;18.00;99.90;;;18.04;100.00;99690.72;5030996;28;20214;-72
2022/09/15 02:32:18;;;;;;;751.42;695.55;;;18.00;99.90;;;18.02;100.00;99691.69;4998741;28;20210;-72
2022/09/15 02:34:50;;;;;;;753.97;698.38;;;18.00;99.90;;;18.02;100.00;99689.03;5012986;28;20226;-69
2022/09/15 02:37:20;;;;;;;756.05;700.00;;;18.00;99.90;;;18.03;100.00;99706.81;5005859;28;20226;-69
2022/09/15 02:39:56;;;;;;;754.58;698.65;;;18.00;99.90;;;18.01;100.00;99697.97;4997278;28;20210;-71
2022/09/15 02:42:30;;;;;;;744.80;690.10;;;17.90;99.90;;;18.01;100.00;99701.53;5010191;28;20213;-69
2022/09/15 02:44:59;;;;;;;745.05;689.70;;;17.90;99.90;;;18.04;100.00;99698.75;5009964;28;20234;-71
2022/09/15 02:47:28;;;;;;;765.30;708.85;;;18.00;99.90;;;18.06;100.00;99694.22;4991581;28;21060;-69
2022/09/15 02:49:56;;;;;;;747.58;692.15;;;18.00;99.90;;;18.05;100.00;99687.13;5006590;28;20214;-69
2022/09/15 02:52:23;;;;;;;754.83;698.58;;;18.00;99.90;;;18.03;100.00;99678.28;5002563;28;20213;-69
2022/09/15 02:54:52;;;;;;;764.20;708.10;;;;;;;18.01;100.00;99676.56;5010458;28;20234;-69
2022/09/15 02:57:20;;;;;;;755.35;699.58;;;18.00;99.90;;;18.03;100.00;99682.75;5010172;28;20231;-69
2022/09/15 03:02:34;;;;;;;747.90;693.10;;;18.00;99.90;;;18.03;100.00;99682.75;5020510;28;20221;-69
2022/09/15 03:05:02;;;;;;;742.22;689.17;;;18.00;99.90;;;18.07;100.00;99685.28;5063137;22;20688;-87
2022/09/15 03:07:30;;;;;;;746.03;693.20;;;;;;;18.04;100.00;99688.03;5045675;28;20210;-86
2022/09/15 03:09:59;;;;;;;739.35;686.97;;;;;;;18.04;100.00;99688.03;5046322;28;20209;-87
2022/09/15 03:12:27;;;;;;;747.40;693.92;;;;;;;18.06;100.00;99680.84;5047479;28;20202;-86
2022/09/15 03:14:56;;;;;;;740.67;687.72;;;;;;;18.06;100.00;99678.16;5047003;28;20672;-86
2022/09/15 03:17:25;;;;;;;743.90;690.85;;;;;;;18.06;100.00;99686.19;5049026;28;20716;-87
2022/09/15 03:19:54;;;;;;;748.25;694.78;;;;;;;18.10;100.00;99692.31;5047232;28;20217;-85
2022/09/15 03:22:23;;;;;;;751.92;698.20;;;;;;;18.12;100.00;99685.13;5049395;28;20695;-84
2022/09/15 03:24:51;;;;;;;743.28;690.45;;;;;;;18.08;100.00;99689.69;5047567;28;20222;-86
2022/09/15 03:27:20;;;;;;;746.90;693.50;;;;;;;18.08;100.00;99686.16;5047848;28;20199;-85
2022/09/15 03:29:48;;;;;;;734.35;681.97;;;;;;;18.07;100.00;99687.06;5047797;28;20210;-86
2022/09/15 03:32:16;;;;;;;744.58;691.80;;;;;;;18.08;100.00;99689.69;5040088;28;20214;-84
2022/09/15 03:34:45;;;;;;;750.05;696.88;;;;;;;18.08;100.00;99687.03;5047750;28;20227;-83
2022/09/15 03:37:17;;;;;;;741.90;688.90;;;18.00;99.90;;;18.08;100.00;99686.16;5046026;28;20241;-83
2022/09/15 03:39:46;;;;;;;743.17;689.75;;;18.00;99.90;;;18.10;100.00;99684.28;5046264;28;20206;-83
2022/09/15 03:42:15;;;;;;;743.53;690.42;;;;;;;18.11;100.00;99689.59;5048594;28;20206;-86
2022/09/15 03:44:43;;;;;;;748.83;696.03;;;;;;;18.10;100.00;99687.84;5044886;28;20227;-86
2022/09/15 03:47:11;;;;;;;741.75;689.47;;;;;;;18.10;100.00;99682.50;5048195;28;20656;-84
2022/09/15 03:49:40;;;;;;;740.92;688.53;;;;;;;18.15;100.00;99685.88;5043600;28;20210;-82
2022/09/15 03:52:08;;;;;;;742.58;689.92;;;;;;;18.14;100.00;99691.28;5048908;28;20205;-83
2022/09/15 03:54:36;;;;;;;741.17;688.50;;;;;;;18.16;100.00;99694.78;5047008;28;20226;-83
2022/09/15 03:57:05;;;;;;;747.70;693.97;;;;;;;18.17;100.00;99692.06;5043906;28;20237;-84
2022/09/15 03:59:33;;;;;;;751.80;697.15;;;18.10;99.90;;;18.17;100.00;99699.22;5050189;28;20206;-84
2022/09/15 04:02:01;;;;;;;741.00;687.60;;;;;;;18.17;100.00;99697.41;5044947;28;20244;-85
2022/09/15 04:04:30;;;;;;;740.40;687.35;;;;;;;18.20;100.00;99693.75;5044869;28;20222;-87
2022/09/15 04:06:59;;;;;;;749.00;695.50;;;;;;;18.21;100.00;99696.41;5050894;28;20595;-88
2022/09/15 04:09:29;;;;;;;741.63;688.55;;;;;;;18.20;100.00;99694.66;5051234;28;20207;-88
2022/09/15 04:11:57;;;;;;;734.78;682.42;;;;;;;18.20;100.00;99700.03;5045247;28;20210;-87
2022/09/15 04:14:26;;;;;;;740.45;687.55;;;;;;;18.20;100.00;99689.31;5049569;28;20254;-85
2022/09/15 04:16:54;;;;;;;752.63;697.50;;;;;;;18.17;100.00;99692.06;5047431;28;20262;-88
2022/09/15 04:19:23;;;;;;;741.65;688.65;;;;;;;18.15;100.00;99691.25;5061886;28;20229;-89
2022/09/15 04:21:51;;;;;;;739.40;686.83;;;;;;;18.16;100.00;99695.66;5049664;28;20575;-88
2022/09/15 04:24:20;;;;;;;741.55;688.72;;;18.10;99.90;;;18.14;100.00;99697.50;5046699;28;20222;-86
2022/09/15 04:26:48;;;;;;;737.03;684.53;;;;;;;18.13;100.00;99702.91;5053121;28;20206;-85
2022/09/15 04:29:17;;;;;;;737.00;684.85;;;18.10;99.90;;;18.13;100.00;99705.59;5059707;28;20201;-83
2022/09/15 04:31:46;;;;;;;739.85;687.03;;;;;;;18.15;100.00;99701.94;5052037;28;20206;-82
2022/09/15 04:34:14;;;;;;;742.50;688.97;;;;;;;18.16;100.00;99709.03;5049378;28;20218;-83
2022/09/15 04:36:42;;;;;;;745.05;691.88;;;;;;;18.17;100.00;99710.78;5047325;28;20222;-83
2022/09/15 04:39:11;;;;;;;744.75;691.38;;;;;;;18.17;100.00;99710.78;5051086;28;20211;-85
2022/09/15 04:41:39;;;;;;;744.67;691.35;;;;;;;18.17;100.00;99712.59;5054224;28;20222;-82
2022/09/15 04:44:07;;;;;;;741.08;688.53;;;;;;;18.17;100.00;99716.16;5062211;28;20226;-82
2022/09/15 04:46:35;;;;;;;743.33;690.60;;;;;;;18.16;100.00;99705.50;5039486;28;20783;-84
2022/09/15 04:49:04;;;;;;;751.08;697.65;;;;;;;18.19;100.00;99711.63;5029268;28;20202;-84
2022/09/15 04:51:32;;;;;;;744.75;691.95;;;;;;;18.21;100.00;99722.31;5049331;28;20203;-85
2022/09/15 04:54:01;;;;;;;752.28;699.38;;;;;;;18.12;100.00;99725.25;5045576;28;20324;-85
2022/09/15 04:56:29;;;;;;;737.22;684.72;;;18.00;99.90;;;17.93;100.00;99716.94;5051101;28;20203;-86
2022/09/15 04:58:58;;;;;;;740.80;688.05;;;17.90;99.90;;;17.88;100.00;99726.94;5043992;28;20227;-85
2022/09/15 05:01:34;;;;;;;733.83;680.92;;;17.80;99.90;;;17.63;100.00;99718.78;5033350;28;20199;-88
2022/09/15 05:04:03;;;;;;;728.30;676.17;;;17.60;99.90;;;17.54;100.00;99717.25;5049975;28;20253;-87
2022/09/15 05:06:33;;;;;;;733.38;680.05;;;;;;;17.38;100.00;99712.44;5052402;28;20205;-87
2022/09/15 05:09:04;;;;;;;733.25;679.95;;;17.30;99.90;;;17.33;100.00;99709.00;5048453;28;20202;-89
2022/09/15 05:11:37;;;;;;;732.78;679.70;;;;;;;17.18;100.00;99697.88;5048014;28;20210;-86
2022/09/15 05:14:06;;;;;;;726.20;673.78;;;;;;;17.14;100.00;99685.50;5048994;28;20234;-88
2022/09/15 05:16:35;;;;;;;727.78;675.17;;;;;;;17.07;100.00;99697.31;5047916;28;20214;-86
2022/09/15 05:19:03;;;;;;;724.88;672.35;;;;;;;17.09;100.00;99705.28;5049260;28;20242;-87
2022/09/15 05:21:32;;;;;;;720.90;668.70;;;;;;;17.04;100.00;99699.19;5044763;28;20205;-87
2022/09/15 05:24:00;;;;;;;723.47;670.38;;;17.10;99.90;;;16.91;100.00;99701.34;5049957;28;20233;-89
2022/09/15 05:26:29;;;;;;;723.90;671.05;;;16.90;99.90;;;16.85;100.00;99713.03;5047779;28;20572;-88
2022/09/15 05:28:57;;;;;;;710.92;658.85;;;;;;;16.64;100.00;99713.59;5050474;28;20199;-86
2022/09/15 05:31:29;;;;;;;708.42;656.33;;;16.70;99.90;;;16.59;100.00;99724.41;5048215;28;20199;-85
2022/09/15 05:34:01;;;;;;;704.72;651.63;;;16.50;99.90;;;16.40;100.00;99725.78;5039582;28;20199;-87
2022/09/15 05:36:30;;;;;;;692.85;641.25;;;;;;;16.21;100.00;99714.72;5052845;28;20199;-87
2022/09/15 05:38:59;;;;;;;702.22;649.22;;;;;;;16.17;100.00;99737.06;5049738;28;20218;-86
2022/09/15 05:41:28;;;;;;;688.30;636.47;;;16.00;99.90;;;15.91;100.00;99720.81;5049236;28;20217;-85
2022/09/15 05:43:57;;;;;;;686.53;633.90;;;15.90;99.90;;;15.75;100.00;99712.31;5043799;28;20203;-86
2022/09/15 05:46:26;;;;;;;669.20;617.63;;;15.80;99.90;;;15.68;100.00;99727.56;5052120;28;20203;-87
2022/09/15 05:48:57;;;;;;;662.88;611.30;;;15.60;99.90;;;15.53;100.00;99717.19;5047330;28;20199;-87
2022/09/15 05:51:26;;;;;;;650.92;599.40;;;;;;;15.46;100.00;99709.38;5047316;28;20194;-84
2022/09/15 05:53:55;;;;;;;655.25;602.70;;;;;;;15.44;100.00;99719.19;5050146;28;20206;-86
2022/09/15 05:56:23;;;;;;;637.42;586.13;;;;;;;15.41;100.00;99727.25;5050225;28;20645;-87
2022/09/15 05:58:51;;;;;;;628.80;577.97;;;;;;;15.33;100.00;99725.63;5040429;28;20233;-85
2022/09/15 06:01:23;;;;;;;639.20;586.85;;;15.30;99.90;;;15.33;100.00;99725.63;5040266;28;20210;-84
2022/09/15 06:03:52;;;;;;;627.15;574.55;;;15.30;99.90;;;15.28;100.00;99726.63;5043712;28;20775;-86
2022/09/15 06:06:22;;;;;;;619.05;568.50;;;15.30;99.90;;;15.29;100.00;99744.38;5044753;28;20236;-84
2022/09/15 06:08:56;;;;;;;621.92;570.80;;;15.20;99.90;;;15.22;100.00;99735.63;5042022;28;20210;-86
2022/09/15 06:11:28;;;;;;;612.28;562.00;;;15.20;99.90;;;15.25;100.00;99730.22;5052568;28;20198;-85
2022/09/15 06:14:02;;;;;;;618.97;566.80;;;15.20;99.90;;;15.25;100.00;99742.69;5041075;28;20215;-86
2022/09/15 06:16:32;;;;;;;603.95;553.55;;;15.10;99.90;;;15.20;100.00;99748.09;5045128;28;20213;-85
2022/09/15 06:19:01;;;;;;;613.42;561.92;;;;;;;15.13;100.00;99748.25;5048405;28;20256;-84
2022/09/15 06:21:31;;;;;;;602.85;552.25;;;15.20;99.90;;;15.20;100.00;99772.06;5042291;28;20207;-84
2022/09/15 06:24:03;;;;;;;611.88;560.20;;;15.20;99.90;;;15.19;100.00;99777.44;5050637;28;20240;-82
2022/09/15 06:26:32;;;;;;;604.45;554.15;;;;;;;15.13;100.00;99772.22;5038925;28;20214;-83
2022/09/15 06:29:02;;;;;;;596.75;546.67;;;15.10;99.90;;;15.15;100.00;99781.94;5037218;28;20206;-84
2022/09/15 06:31:32;;;;;;;594.58;544.47;;;15.10;99.90;;;15.10;100.00;99777.59;5051442;28;20207;-84
2022/09/15 06:34:02;;;;;;;597.75;547.65;;;15.10;99.90;;;15.02;100.00;99769.78;5045076;28;20219;-84
2022/09/15 06:36:31;;;;;;;599.90;549.80;;;;;;;14.99;100.00;99761.84;5048513;28;20198;-86
2022/09/15 06:38:59;;;;;;;594.85;544.55;;;;;;;14.98;100.00;99773.41;5045212;28;20226;-83
2022/09/15 06:41:28;;;;;;;601.33;550.90;;;;;;;14.91;100.00;99766.44;5033067;28;20210;-85
2022/09/15 06:44:20;;;;;;;586.70;536.67;;;14.90;99.90;;;14.84;100.00;99767.47;5037886;28;20234;-84
2022/09/15 06:46:49;;;;;;;587.17;537.28;;;14.90;99.90;;;14.75;100.00;99767.63;5038351;28;20215;-84
2022/09/15 06:49:17;;;;;;;584.88;534.55;;;;;;;14.66;100.00;99776.66;5042860;28;20214;-84
2022/09/15 06:51:46;;;;;;;580.53;530.70;;;;;;;14.61;100.00;99776.75;5043613;28;20209;-84
2022/09/15 06:54:15;;;;;;;577.10;527.28;;;;;;;14.77;100.00;99805.75;5049276;28;20223;-84
2022/09/15 06:56:43;;;;;;;581.90;532.20;;;;;;;14.65;100.00;99804.19;5048337;28;20203;-84
2022/09/15 06:59:12;;;;;;;578.63;528.72;;;14.60;99.90;;;14.69;100.00;99819.19;5045354;28;20231;-83
2022/09/15 07:01:41;;;;;;;590.10;538.50;;;14.70;99.90;;;14.69;100.00;99829.84;5042141;28;20207;-85
2022/09/15 07:04:10;;;;;;;574.72;525.30;;;14.70;99.90;;;14.83;100.00;99838.47;5043514;28;20241;-83
2022/09/15 07:06:38;;;;;;;577.40;527.92;;;14.70;99.90;;;14.89;100.00;99850.78;5041676;28;20211;-82
2022/09/15 07:09:07;;;;;;;579.33;529.42;;;14.90;99.90;;;14.91;100.00;99860.50;5044873;28;20210;-83
2022/09/15 07:11:35;;;;;;;577.45;527.45;;;;;;;14.97;100.00;99863.06;5045515;28;20211;-82
2022/09/15 07:14:03;;;;;;;582.25;532.47;;;15.00;99.90;;;14.91;100.00;99863.16;5048803;28;20230;-83
2022/09/15 07:16:32;;;;;;;591.95;541.28;;;15.00;99.90;;;14.99;100.00;99876.34;5038183;28;20202;-83
2022/09/15 07:19:02;;;;;;;589.25;538.80;;;;;;;14.94;100.00;99868.44;5043108;28;20231;-81
2022/09/15 07:21:31;;;;;;;583.08;532.97;;;;;;;14.96;100.00;99857.75;5048362;28;20210;-82
2022/09/15 07:23:59;;;;;;;586.05;535.88;;;;;;;15.02;100.00;99850.53;5046663;28;20256;-82
2022/09/15 07:26:34;;;;;;;588.33;538.13;;;;;;;15.12;100.00;99850.38;5049641;28;20202;-83
2022/09/15 07:29:05;;;;;;;583.88;533.83;;;15.10;99.90;;;15.28;100.00;99865.16;5041302;28;20211;-84
2022/09/15 07:31:36;;;;;;;591.30;540.85;;;15.30;99.90;;;15.41;100.00;99876.44;5049151;28;20203;-84
2022/09/15 07:34:05;;;;;;;591.63;541.15;;;15.30;99.90;;;15.44;100.00;99885.25;5041150;28;20230;-84
2022/09/15 07:36:34;;;;;;;597.85;547.60;;;;;;;15.40;100.00;99890.66;5046879;28;20233;-83
2022/09/15 07:39:04;;;;;;;595.47;545.65;;;15.50;99.90;;;15.48;100.00;99897.59;5043285;28;20681;-84
2022/09/15 07:41:33;;;;;;;607.55;557.25;;;;;;;15.59;100.00;99906.31;5044180;28;20210;-84
2022/09/15 07:44:01;;;;;;;604.63;553.42;;;15.50;99.90;;;15.63;100.00;99908.03;5060111;28;20226;-83
2022/09/15 07:46:31;;;;;;;612.08;561.33;;;15.70;99.90;;;15.83;100.00;99920.97;5037596;28;20207;-83
2022/09/15 07:49:01;;;;;;;620.20;568.65;;;15.70;99.90;;;15.76;100.00;99918.44;5046407;28;20207;-83
2022/09/15 07:51:30;;;;;;;618.78;567.58;;;;;;;15.70;100.00;99919.44;5048130;28;20202;-84
2022/09/15 07:53:58;;;;;;;618.88;568.15;;;15.80;99.90;;;15.92;100.00;99923.44;5049041;28;20195;-83
2022/09/15 07:56:26;;;;;;;621.28;570.33;;;;;;;15.95;100.00;99930.50;5045422;28;20203;-83
2022/09/15 07:58:54;;;;;;;624.50;574.10;;;;;;;16.06;100.00;99939.16;5041919;28;20231;-84
2022/09/15 08:01:23;;;;;;;634.72;583.28;;;;;;;16.10;100.00;99935.50;5021075;28;20660;-84
2022/09/15 08:03:52;;;;;;;637.80;585.72;;;;;;;16.21;100.00;99943.28;5041797;28;20214;-84
2022/09/15 08:06:23;;;;;;;636.85;585.67;;;16.20;99.90;;;16.19;100.00;99937.97;5045366;28;20195;-84
2022/09/15 08:08:52;;;;;;;635.65;584.17;;;;;;;16.18;100.00;99933.53;5048928;28;20206;-84
2022/09/15 08:11:28;;;;;;;641.20;590.05;;;;;;;16.09;100.00;99922.19;5049397;28;20198;-84
2022/09/15 08:14:01;;;;;;;647.33;595.17;;;16.10;99.90;;;16.09;100.00;99912.41;5042420;28;20213;-85
2022/09/15 08:16:30;;;;;;;638.95;588.05;;;;;;;16.08;100.00;99904.44;5049207;28;20202;-85
2022/09/15 08:18:58;;;;;;;649.30;597.85;;;;;;;16.21;100.00;99896.13;5049238;28;20230;-85
2022/09/15 08:21:27;;;;;;;645.22;594.05;;;;;;;16.35;100.00;99900.28;5040003;28;20202;-85
2022/09/15 08:24:00;;;;;;;654.13;601.65;;;14.80;99.90;;;16.31;100.00;99904.81;5049499;28;20199;-85
2022/09/15 08:26:29;;;;;;;657.85;606.10;;;16.30;99.90;;;16.38;100.00;99913.53;5044183;28;20207;-86
2022/09/15 08:28:58;;;;;;;665.17;613.25;;;;;;;16.39;100.00;99899.28;5040043;28;20206;-85
2022/09/15 08:31:26;;;;;;;657.47;605.70;;;;;;;16.55;100.00;99930.03;5036513;28;20199;-84
2022/09/15 08:33:55;;;;;;;658.30;606.17;;;;;;;16.48;100.00;99907.09;5041005;28;20230;-85
2022/09/15 08:36:26;;;;;;;665.25;613.60;;;;;;;16.58;100.00;99916.63;5044103;28;20206;-85
2022/09/15 08:38:55;;;;;;;657.75;606.60;;;;;;;16.46;100.00;99892.91;5048524;28;20222;-86
2022/09/15 08:41:31;;;;;;;659.78;608.17;;;;;;;16.59;100.00;99897.03;5041356;28;20202;-85
2022/09/15 08:44:37;;;;;;;663.13;611.55;;;16.50;99.90;;;16.53;100.00;99894.50;5045905;28;20679;-86
2022/09/15 08:47:17;;;;;;;656.20;605.00;;;16.40;99.90;;;16.45;100.00;99884.00;5059880;28;20206;-86
2022/09/15 08:49:59;;;;;;;668.25;615.85;;;16.50;99.90;;;16.52;100.00;99885.63;5043329;28;20207;-84
2022/09/15 08:52:51;;;;;;;668.45;616.65;;;16.50;99.90;;;16.54;100.00;99894.47;5067944;28;20198;-86
2022/09/15 08:55:43;;;;;;;663.45;612.00;;;16.50;99.90;;;16.70;100.00;99904.81;5056626;28;20226;-86
2022/09/15 08:58:24;;;;;;;663.53;611.88;;;16.60;99.90;;;16.67;100.00;99902.22;5042685;28;20199;-85
2022/09/15 09:01:10;;;;;;;677.38;625.70;;;16.60;99.90;;;16.69;100.00;99903.06;5043136;28;20235;-85
2022/09/15 09:04:25;;;;;;;670.92;619.72;;;16.60;99.90;;;16.67;100.00;99899.53;5049520;28;20563;-84
2022/09/15 09:07:36;;;;;;;666.10;614.63;;;16.60;99.90;;;16.74;100.00;99915.38;5048751;28;20217;-85
2022/09/15 09:10:15;;;;;;;672.53;620.65;;;16.70;99.90;;;16.74;100.00;99902.03;5047137;28;20199;-84
2022/09/15 09:12:55;;;;;;;675.35;623.72;;;16.70;99.90;;;16.82;100.00;99905.38;5047626;28;20209;-84
2022/09/15 09:15:26;;;;;;;683.25;631.13;;;16.80;99.90;;;16.81;100.00;99898.28;5052495;28;20313;-87
2022/09/15 09:18:49;;;;;;;688.22;636.28;;;16.80;99.90;;;16.90;100.00;99903.44;5047212;28;20211;-85
2022/09/15 09:21:23;;;;;;;680.88;629.00;;;16.80;99.90;;;16.95;100.00;99908.66;5045354;28;20202;-86
2022/09/15 09:24:24;;;;;;;699.70;646.28;;;17.00;99.90;;;17.17;100.00;99935.69;5043835;28;20207;-85
2022/09/15 09:26:54;;;;;;;694.20;642.08;;;17.00;99.90;;;17.17;100.00;99941.94;5051252;28;20219;-86
2022/09/15 09:29:38;;;;;;;688.63;637.15;;;17.10;99.90;;;16.99;100.00;99905.00;5038100;28;20211;-86
2022/09/15 09:32:17;;;;;;;695.22;643.03;;;17.00;99.90;;;16.92;100.00;99898.94;5048222;28;20206;-88
2022/09/15 09:35:02;;;;;;;696.00;643.75;;;17.00;99.90;;;16.91;100.00;99881.16;5045232;28;20230;-85
2022/09/15 09:37:31;;;;;;;695.00;642.95;;;;;;;16.88;100.00;99883.00;5055842;28;20209;-85
2022/09/15 09:40:00;;;;;;;696.85;645.28;;;16.90;99.90;;;16.89;100.00;99896.31;5045721;28;20230;-85
2022/09/15 09:42:31;;;;;;;702.65;650.42;;;17.00;99.90;;;16.93;100.00;99894.47;5051746;28;20222;-86
2022/09/15 09:44:59;;;;;;;703.55;651.75;;;;;;;16.97;100.00;99887.25;5052287;28;20222;-85
2022/09/15 09:47:28;;;;;;;705.55;653.38;;;17.00;99.90;;;16.93;100.00;99900.69;5035275;28;20581;-86
2022/09/15 09:49:57;;;;;;;701.88;650.08;;;;;;;17.02;100.00;99912.94;5047603;28;20203;-86
2022/09/15 09:52:36;;;;;;;714.08;661.88;;;17.10;99.90;;;17.16;100.00;99926.81;5052546;28;20214;-85
2022/09/15 09:55:26;;;;;;;706.97;654.92;;;17.10;99.90;;;17.07;100.00;99910.13;5031391;28;20246;-87
2022/09/15 09:58:24;;;;;;;376.77;252.47;;;17.20;99.90;;;17.20;100.00;99925.81;5030425;28;20206;-84
2022/09/15 10:00:53;;;;;;;539.20;492.90;;;;;;;17.26;100.00;99941.69;5028829;28;20701;-84
2022/09/15 10:03:25;;;;;;;6.30;2.13;;;15.80;99.90;;;17.23;100.00;99916.84;5037582;28;20209;-84
2022/09/15 10:06:11;;;;;;;0.20;0.20;;;17.20;99.90;;;17.27;100.00;99915.84;5045277;28;20238;-85
2022/09/15 10:08:55;;;;;;;0.30;0.30;;;17.30;99.90;;;17.39;100.00;99919.97;5033513;28;20210;-86
2022/09/15 10:11:48;;;;;;;2.50;1.58;;;17.30;99.90;;;17.22;100.00;99905.28;5027283;28;20218;-86
2022/09/15 10:14:55;;;;;;;2.17;1.40;;;17.30;99.90;;;17.28;100.00;99920.28;5031501;28;20215;-86
2022/09/15 10:17:37;;;;;;;5.22;2.22;;;17.30;99.90;;;17.42;100.00;99950.19;5029299;28;20210;-86
2022/09/15 10:20:31;;;;;;;691.30;641.78;;;17.40;99.90;;;17.39;100.00;99944.03;5034407;28;20242;-87
2022/09/15 10:23:17;;;;;;;643.03;597.70;;;17.40;99.90;;;17.35;100.00;99951.25;5033278;28;20214;-90
2022/09/15 10:25:46;;;;;;;333.48;309.75;;;;;;;17.48;100.00;99960.72;5024179;28;20223;-86
2022/09/15 10:28:26;;;;;;;827.97;773.67;;;17.50;99.90;;;17.50;100.00;99947.28;5027744;28;20207;-86
2022/09/15 10:31:09;;;;;;;646.63;597.30;;;17.60;99.90;;;17.77;100.00;99965.28;5027290;28;20215;-87
2022/09/15 10:33:41;;;;;;;2.30;1.38;;;17.80;99.90;;;17.85;100.00;99973.09;5037015;28;20208;-87
2022/09/15 10:36:22;;;;;;;5.75;2.20;;;17.80;99.90;;;17.71;100.00;99952.09;5034145;28;20203;-89
2022/09/15 10:39:31;;;;;;;6.20;2.30;;;17.90;99.90;;;18.15;100.00;100008.81;5028649;28;20206;-88
2022/09/15 10:42:21;;;;;;;5.13;2.13;;;18.00;99.90;;;18.06;100.00;99979.66;5010843;28;20210;-88